Flight Track Log - Related Links

Times and Time Zones

All times are in EST time to prevent confusion due to time zone crossing. See the EJA357 flight status page for this flight to view local times or setup timezone preferences in your user account.

Time Position Orientation Groundspeed Altitude Reporting Facility
EST Latitude Longitude Course Direction KTS MPH feet Rate Location/Type
Fri 11:46:53 AM 18.4833 -64.5500 270° West 210 242 4,700  Level San Juan Center
Fri 11:47:54 AM 18.4833 -64.6333 270° West 270 311 8,500 2,678 Climbing San Juan Center
Fri 11:48:54 AM 18.5500 -64.6833 325° Northwest 330 380 10,100 1,850 Climbing San Juan Center
Fri 11:49:54 AM 18.6333 -64.7500 323° Northwest 370 426 12,200 2,300 Climbing San Juan Center
Fri 11:50:54 AM 18.7167 -64.8167 323° Northwest 380 437 14,700 2,200 Climbing San Juan Center
Fri 11:51:54 AM 18.8000 -64.8833 323° Northwest 390 449 16,600 1,650 Climbing San Juan Center
Fri 11:52:00 AM 19.0876 -64.7572 270° West  Level Estimated
Fri 11:52:54 AM 18.9000 -64.9667 322° Northwest 420 483 18,000  Level San Juan Center
Fri 11:53:54 AM 18.9833 -65.0500 317° Northwest 430 495 19,500 1,550 Climbing San Juan Center
Fri 11:54:54 AM 19.0833 -65.1167 328° Northwest 440 506 21,100 1,650 Climbing San Juan Center
Fri 11:55:54 AM 19.1667 -65.1833 323° Northwest 430 495 22,800 1,700 Climbing San Juan Center
Fri 11:56:54 AM 19.2667 -65.2667 322° Northwest 420 483 24,500 1,537 Climbing San Juan Center
Fri 11:57:55 AM 19.3500 -65.3333 323° Northwest 420 483 25,900 1,388 Climbing San Juan Center
Fri 11:58:55 AM 19.4500 -65.4167 322° Northwest 430 495 27,300 1,400 Climbing San Juan Center
Fri 11:59:55 AM 19.5500 -65.5000 322° Northwest 440 506 28,700 1,450 Climbing San Juan Center
Fri 12:00:55 PM 19.6500 -65.5667 328° Northwest 440 506 30,200 1,450 Climbing San Juan Center
Fri 12:01:55 PM 19.7500 -65.6500 322° Northwest 440 506 31,600 1,550 Climbing San Juan Center
Fri 12:02:55 PM 19.8333 -65.7333 317° Northwest 430 495 33,300 1,488 Climbing San Juan Center
Fri 12:03:56 PM 19.9333 -65.8000 328° Northwest 420 483 34,600 1,388 Climbing San Juan Center
Fri 12:04:56 PM 20.0167 -65.8833 317° Northwest 410 472 36,100 1,250 Climbing San Juan Center
Fri 12:05:56 PM 20.1167 -65.9500 328° Northwest 400 460 37,100 950 Climbing San Juan Center
Fri 12:06:56 PM 20.2000 -66.0167 323° Northwest 400 460 38,000 900 Climbing San Juan Center
Fri 12:07:56 PM 20.2833 -66.1000 317° Northwest 400 460 38,900 1,050 Climbing San Juan Center
Fri 12:08:56 PM 20.3833 -66.1667 328° Northwest 390 449 40,100 1,200 Climbing San Juan Center
Fri 12:09:56 PM 20.4667 -66.2333 323° Northwest 380 437 41,300 1,100 Climbing San Juan Center
Fri 12:10:56 PM 20.5333 -66.3000 317° Northwest 350 403 42,300 850 Climbing San Juan Center
Fri 12:11:56 PM 20.6167 -66.3667 323° Northwest 350 403 43,000 347 Climbing San Juan Center
Fri 12:12:57 PM 20.7167 -66.4500 322° Northwest 360 414 43,000  Level San Juan Center
Fri 12:13:57 PM 20.8000 -66.5000 331° Northwest 370 426 43,000  Level San Juan Center
Fri 12:14:57 PM 20.8833 -66.5667 323° Northwest 370 426 43,000  Level San Juan Center
Fri 12:15:57 PM 20.9667 -66.6500 317° Northwest 380 437 43,000  Level San Juan Center
Fri 12:16:57 PM 21.0500 -66.7167 323° Northwest 380 437 43,000  Level San Juan Center
Fri 12:17:57 PM 21.1333 -66.7833 323° Northwest 390 449 43,000  Level San Juan Center
Fri 12:18:57 PM 21.2167 -66.8500 323° Northwest 390 449 43,000  Level San Juan Center
Fri 12:19:58 PM 21.3000 -66.9333 317° Northwest 390 449 43,000  Level San Juan Center
Fri 12:20:57 PM 21.3833 -67.0000 323° Northwest 390 449 43,000  Level San Juan Center
Fri 12:21:58 PM 21.4667 -67.0667 323° Northwest 390 449 43,000  Level San Juan Center
Fri 12:22:58 PM 21.5500 -67.1500 317° Northwest 390 449 43,000  Level San Juan Center
Fri 12:23:45 PM 21.6167 -67.2000 349° North 369 425 43,000  Level New York Oceanic (ODAPS)
Fri 12:33:13 PM 22.2333 -67.3167 349° North 408 470 43,000  Level New York Oceanic (ODAPS)
Fri 12:59:58 PM 25.4667 -68.0000 349° North 409 471 43,000  Level New York Oceanic (ODAPS)
Fri 01:20:21 PM 27.9333 -68.5333 349° North 416 479 43,000  Level New York Oceanic (ODAPS)
Fri 01:48:13 PM 30.9000 -69.2333 349° North 400 460 43,000  Level New York Oceanic (ODAPS)
Fri 02:09:13 PM 33.3000 -69.8167 348° North 429 494 43,000  Level New York Oceanic (ODAPS)
Fri 02:29:57 PM 35.7667 -70.4500 348° North 422 486 43,000  Level New York Oceanic (ODAPS)
Fri 02:41:43 PM 37.1764 -70.8369 324° Northwest 424 488 43,000  Level New York Center
Fri 02:42:00 PM 37.2581 -70.8554 348° North 422 486 43,000  Level FlightAware Transoceanic
Fri 02:42:43 PM 37.2933 -70.8686 348° North 424 488 43,000  Level New York Center
Fri 02:43:00 PM 37.3727 -70.8872 348° North 422 486 43,000  Level FlightAware Transoceanic
Fri 02:43:43 PM 37.4122 -70.8975 349° North 429 494 43,000  Level New York Center
Fri 02:44:00 PM 37.4874 -70.9192 348° North 422 486 43,000  Level FlightAware Transoceanic
Fri 02:44:43 PM 37.5267 -70.9369 345° North 429 494 43,000  Level New York Center
Fri 02:45:00 PM 37.6020 -70.9512 347° North 422 486 43,000  Level FlightAware Transoceanic
Fri 02:45:43 PM 37.6436 -70.9664 349° North 429 494 43,000  Level New York Center
Fri 02:46:00 PM 37.7167 -70.9833 324° Northwest 422 486 43,000  Level FlightAware Transoceanic
Fri 02:46:43 PM 37.7561 -71.0086 343° North 424 488 43,000  Level New York Center
Fri 02:47:43 PM 37.8622 -71.0642 338° Northwest 414 476 43,000  Level New York Center
Fri 02:48:43 PM 37.9728 -71.1069 343° North 414 476 43,000  Level New York Center
Fri 02:49:43 PM 38.0811 -71.1578 340° North 408 470 43,000  Level New York Center
Fri 02:50:43 PM 38.1872 -71.2058 340° North 408 470 43,000  Level New York Center
Fri 02:51:43 PM 38.2956 -71.2517 342° North 408 470 43,000  Level New York Center
Fri 02:52:43 PM 38.4017 -71.3028 339° North 408 470 43,000 -350 Level New York Center
Fri 02:53:43 PM 38.5097 -71.3514 341° North 408 470 42,300 -900 Descending New York Center
Fri 02:54:43 PM 38.6158 -71.3975 341° North 408 470 41,200 -1,000 Descending New York Center
Fri 02:55:43 PM 38.7239 -71.4464 341° North 408 470 40,300 -600 Descending New York Center
Fri 02:56:43 PM 38.8364 -71.5008 339° North 408 470 40,000 -150 Descending New York Center
Fri 02:57:43 PM 38.9464 -71.5525 340° North 408 470 40,000  Level New York Center
Fri 02:58:43 PM 39.0567 -71.6075 339° North 413 475 40,000  Level New York Center
Fri 02:59:43 PM 39.1686 -71.6569 341° North 413 475 40,000  Level New York Center
Fri 03:00:43 PM 39.2789 -71.7094 340° North 418 481 40,000 -1,100 Level New York Center
Fri 03:02:43 PM 39.5022 -71.8133 340° North 421 484 36,700 -1,823 Descending Boston Center
Fri 03:03:00 PM 39.4158 -71.7729 340° North  Level FlightAware Approximate
Fri 03:03:44 PM 39.6092 -71.8639 340° North 412 474 34,500  Level Boston Center
Fri 03:04:44 PM 39.7125 -71.9150 339° North 399 459 32,400 -2,132 Descending Boston Center
Fri 03:05:45 PM 39.8208 -71.9661 340° North 408 470 30,200 -2,132 Descending Boston Center
Fri 03:06:45 PM 39.9261 -72.0164 340° North 408 470 28,100 -2,000 Descending Boston Center
Fri 03:07:48 PM 40.0272 -72.0633 340° North 393 452 26,100 -1,902 Descending Boston Center
Fri 03:08:48 PM 40.1203 -72.1072 340° North 367 422 24,200 -1,041 Descending Boston Center
Fri 03:09:49 PM 40.2253 -72.1583 340° North 360 414 24,000 -545 Descending Boston Center
Fri 03:10:49 PM 40.3167 -72.2025 340° North 355 409 23,100 -893 Descending Boston Center
Fri 03:11:50 PM 40.4031 -72.2439 340° North 340 391 22,200 -787 Descending Boston Center
Fri 03:12:51 PM 40.4922 -72.2872 340° North 340 391 21,500 -689 Descending Boston Center
Fri 03:13:52 PM 40.5800 -72.3294 340° North 338 389 20,800 -738 Descending Boston Center
Fri 03:14:53 PM 40.6658 -72.3714 340° North 333 383 20,000 -726 Descending Boston Center
Fri 03:15:56 PM 40.7586 -72.4181 339° North 332 382 19,300 -683 Descending Boston Center
Fri 03:16:56 PM 40.8386 -72.4550 341° North 306 352 18,600 -694 Descending Boston Center
Fri 03:17:57 PM 40.9178 -72.4950 339° North 308 354 17,900 -639 Descending Boston Center
Fri 03:18:58 PM 40.9964 -72.5344 339° North 307 353 17,300 -843 Descending Boston Center
Fri 03:19:58 PM 41.0600 -72.6092 318° Northwest 318 366 16,200 -645 Descending Boston Center
Fri 03:20:59 PM 41.1319 -72.7092 314° West 318 366 16,000 -98 Descending Boston Center
Fri 03:22:01 PM 41.1914 -72.7903 314° West 311 358 16,000 -541 Level Boston Center
Fri 03:23:01 PM 41.2481 -72.8697 314° West 304 350 14,900 -1,289 Descending Boston Center
Fri 03:24:02 PM 41.3092 -72.9533 314° West 302 348 13,400 -1,438 Descending Boston Center
Fri 03:25:02 PM 41.3686 -73.0361 314° West 307 353 12,000 -1,140 Descending Boston Center
Fri 03:26:03 PM 41.4272 -73.1172 314° West 306 352 11,100 -446 Descending Boston Center
Fri 03:27:03 PM 41.4903 -73.2058 314° West 306 352 11,100 -50 Level Boston Center
Fri 03:28:04 PM 41.5486 -73.2881 313° West 305 351 11,000  Descending Boston Center
Fri 03:29:07 PM 41.6081 -73.3733 313° West 306 352 11,100 48 Climbing Boston Center
Fri 03:30:08 PM 41.6658 -73.4556 313° West 305 351 11,100 -150 Level Boston Center
Fri 03:31:07 PM 41.7239 -73.5364 314° West 303 349 10,800 -750 Descending Boston Center
Fri 03:32:08 PM 41.7356 -73.6181 281° West 261 300 9,600 -1,220 Descending Boston Center
Fri 03:33:10 PM 41.6606 -73.6447 195° South 284 327 8,300 -1,366 Descending Boston Center
Fri 03:34:11 PM 41.6061 -73.7111 222° Southwest 256 295 6,800 -1,438 Descending Boston Center
Fri 03:35:11 PM 41.5700 -73.7942 240° Southwest 259 298 5,400 -1,230 Descending Boston Center
Fri 03:36:13 PM 41.5383 -73.8758 243° Southwest 243 280 4,300 -1,190 Descending Boston Center
Fri 03:37:12 PM 41.5286 -73.9483 260° West 202 232 3,000 -1,082 Descending Boston Center
Fri 03:38:15 PM 41.5197 -74.0072 259° West 169 194 2,100 -818 Descending Boston Center
Fri 03:39:24 PM 41.5167 -74.0500 265° West 109 125 1,200 -783 Descending New York TRACON
Fri 03:42:00 PM 41.5000 -74.1000 254° West  Level FlightAware Approximate
Fri 03:49:00 PM 41.5041 -74.1048 254° West  Level Estimated

Login

Don't have an account? Register now (free) for customized features, flight alerts, and more!